createdAt,value
2018-09-09T00:00:09.712Z,99.9
2018-09-09T00:01:16.933Z,99.9
2018-09-09T00:02:24.142Z,99.9
2018-09-09T00:03:31.359Z,99.9
2018-09-09T00:04:38.568Z,99.9
2018-09-09T00:05:45.790Z,99.9
2018-09-09T00:06:53.006Z,99.9
2018-09-09T00:08:00.214Z,99.9
2018-09-09T00:09:07.424Z,99.9
2018-09-09T00:10:14.365Z,99.9
2018-09-09T00:11:21.572Z,99.9
2018-09-09T00:12:28.804Z,99.9
2018-09-09T00:13:36.027Z,99.9
2018-09-09T00:14:43.234Z,99.9
2018-09-09T00:15:50.449Z,99.9
2018-09-09T00:16:57.651Z,99.9
2018-09-09T00:18:04.860Z,99.9
2018-09-09T00:19:12.068Z,99.9
2018-09-09T00:20:19.278Z,99.9
2018-09-09T00:21:26.488Z,99.9
2018-09-09T00:22:33.696Z,99.9
2018-09-09T00:23:40.638Z,99.9
2018-09-09T00:24:47.582Z,99.9
2018-09-09T00:25:54.795Z,99.9
2018-09-09T00:27:02.001Z,99.9
2018-09-09T00:28:09.213Z,99.9
2018-09-09T00:29:16.427Z,99.9
2018-09-09T00:30:23.637Z,99.9
2018-09-09T00:31:30.846Z,99.9
2018-09-09T00:32:38.059Z,99.9
2018-09-09T00:33:45.264Z,99.9
2018-09-09T00:34:52.206Z,99.9
2018-09-09T00:35:59.420Z,99.9
2018-09-09T00:37:06.634Z,99.9
2018-09-09T00:38:13.575Z,99.9
2018-09-09T00:39:20.781Z,99.9
2018-09-09T00:40:27.720Z,99.9
2018-09-09T00:41:34.932Z,99.9
2018-09-09T00:42:42.146Z,99.9
2018-09-09T00:43:49.082Z,99.9
2018-09-09T00:44:56.342Z,99.9
2018-09-09T00:46:03.538Z,99.9
2018-09-09T00:47:10.749Z,99.9
2018-09-09T00:48:17.961Z,99.9
2018-09-09T00:49:25.174Z,99.9
2018-09-09T00:50:32.384Z,99.9
2018-09-09T00:51:39.590Z,99.9
2018-09-09T00:52:46.797Z,99.9
2018-09-09T00:53:54.011Z,99.9
2018-09-09T00:55:01.219Z,99.9
2018-09-09T00:56:08.427Z,99.9
2018-09-09T00:57:15.635Z,99.9
2018-09-09T00:58:22.844Z,99.9
2018-09-09T00:59:30.047Z,99.9
2018-09-09T01:00:37.257Z,99.9
2018-09-09T01:01:44.466Z,99.9
2018-09-09T01:02:51.676Z,99.9
2018-09-09T01:03:58.888Z,99.9
2018-09-09T01:05:06.104Z,99.9
2018-09-09T01:06:13.324Z,99.9
2018-09-09T01:07:20.534Z,99.9
2018-09-09T01:08:27.738Z,99.9
2018-09-09T01:09:34.949Z,99.9
2018-09-09T01:10:42.157Z,99.9
2018-09-09T01:11:49.375Z,99.9
2018-09-09T01:12:56.600Z,99.9
2018-09-09T01:14:03.813Z,99.9
2018-09-09T01:15:11.025Z,99.9
2018-09-09T01:16:18.240Z,99.9
2018-09-09T01:17:25.448Z,99.9
2018-09-09T01:18:32.658Z,99.9
2018-09-09T01:19:39.876Z,99.9
2018-09-09T01:20:47.074Z,99.9
2018-09-09T01:21:54.291Z,99.9
2018-09-09T01:23:01.500Z,99.9
2018-09-09T01:24:08.718Z,99.9
2018-09-09T01:25:15.926Z,99.9
2018-09-09T01:26:23.147Z,99.9
2018-09-09T01:27:30.362Z,99.9
2018-09-09T01:28:37.567Z,99.9
2018-09-09T01:29:44.502Z,99.9
2018-09-09T01:30:51.712Z,99.9
2018-09-09T01:31:58.921Z,99.9
2018-09-09T01:33:05.859Z,99.9
2018-09-09T01:34:12.790Z,99.9
2018-09-09T01:35:20.002Z,99.9
2018-09-09T01:36:27.213Z,99.9
2018-09-09T01:37:34.427Z,99.9
2018-09-09T01:38:41.644Z,99.9
2018-09-09T01:39:48.859Z,99.9
2018-09-09T01:40:56.073Z,99.9
2018-09-09T01:42:03.005Z,99.9
2018-09-09T01:43:10.214Z,99.9
2018-09-09T01:44:17.426Z,99.9
2018-09-09T01:45:24.640Z,99.9
2018-09-09T01:46:31.566Z,99.9
2018-09-09T01:47:38.505Z,99.9
2018-09-09T01:48:45.718Z,99.9
2018-09-09T01:49:52.931Z,99.9
2018-09-09T01:51:00.138Z,99.9
2018-09-09T01:52:07.352Z,99.9
2018-09-09T01:53:14.561Z,99.9
2018-09-09T01:54:21.772Z,99.9
2018-09-09T01:55:28.708Z,99.9
2018-09-09T01:56:35.631Z,99.9
2018-09-09T01:57:42.566Z,99.9
2018-09-09T01:58:49.779Z,99.9
2018-09-09T01:59:56.990Z,99.9
2018-09-09T02:01:04.202Z,99.9
2018-09-09T02:02:11.130Z,99.9
2018-09-09T02:03:18.340Z,99.9
2018-09-09T02:04:25.294Z,99.9
2018-09-09T02:05:32.483Z,99.9
2018-09-09T02:06:39.699Z,99.9
2018-09-09T02:07:46.908Z,99.9
2018-09-09T02:08:54.117Z,99.9
2018-09-09T02:10:01.332Z,99.9
2018-09-09T02:11:08.556Z,99.9
2018-09-09T02:12:15.754Z,99.9
2018-09-09T02:13:22.967Z,99.9
2018-09-09T02:14:30.176Z,99.9
2018-09-09T02:15:37.385Z,99.9
2018-09-09T02:16:44.595Z,99.9
2018-09-09T02:17:51.804Z,99.9
2018-09-09T02:18:59.014Z,99.9
2018-09-09T02:20:06.227Z,99.9
2018-09-09T02:21:13.164Z,99.9
2018-09-09T02:22:20.375Z,99.9
2018-09-09T02:23:27.319Z,99.9
2018-09-09T02:24:34.531Z,99.9
2018-09-09T02:25:41.797Z,99.9
2018-09-09T02:26:49.083Z,99.9
2018-09-09T02:27:56.293Z,99.9
2018-09-09T02:29:03.492Z,99.9
2018-09-09T02:30:10.708Z,99.9
2018-09-09T02:31:17.911Z,99.9
2018-09-09T02:32:25.121Z,99.9
2018-09-09T02:34:54.179Z,99.9
2018-09-09T02:36:01.391Z,99.9
2018-09-09T02:37:08.604Z,99.9
2018-09-09T02:38:15.815Z,99.9
2018-09-09T02:39:23.034Z,99.9
2018-09-09T02:40:30.246Z,99.9
2018-09-09T02:41:37.458Z,99.9
2018-09-09T02:42:44.668Z,99.9
2018-09-09T02:43:51.996Z,99.9
2018-09-09T02:44:59.690Z,99.9
2018-09-09T02:46:06.898Z,99.9
2018-09-09T02:47:14.104Z,99.9
2018-09-09T02:48:21.317Z,99.9
2018-09-09T02:49:28.525Z,99.9
2018-09-09T02:50:35.733Z,99.9
2018-09-09T02:51:42.943Z,99.9
2018-09-09T02:52:49.880Z,99.9
2018-09-09T02:53:57.092Z,99.9
2018-09-09T02:55:04.303Z,99.9
2018-09-09T02:56:11.510Z,99.9
2018-09-09T02:57:18.720Z,99.9
2018-09-09T02:58:25.936Z,99.9
2018-09-09T02:59:33.143Z,99.9
2018-09-09T03:00:40.077Z,99.9
2018-09-09T03:01:47.293Z,99.9
2018-09-09T03:02:54.501Z,99.9
2018-09-09T03:04:01.710Z,99.9
2018-09-09T03:05:08.922Z,99.9
2018-09-09T03:06:16.137Z,99.9
2018-09-09T03:07:23.066Z,99.9
2018-09-09T03:08:30.284Z,99.9
2018-09-09T03:09:37.496Z,99.9
2018-09-09T03:10:44.724Z,99.9
2018-09-09T03:11:51.941Z,99.9
2018-09-09T03:12:59.148Z,99.9
2018-09-09T03:14:06.357Z,99.9
2018-09-09T03:15:13.563Z,99.9
2018-09-09T03:16:20.492Z,99.9
2018-09-09T03:17:27.703Z,99.9
2018-09-09T03:18:34.909Z,99.9
2018-09-09T03:19:41.846Z,99.9
2018-09-09T03:20:49.050Z,99.9
2018-09-09T03:21:56.259Z,99.9
2018-09-09T03:23:03.191Z,99.9
2018-09-09T03:24:10.122Z,99.9
2018-09-09T03:25:17.329Z,99.9
2018-09-09T03:26:24.545Z,99.9
2018-09-09T03:27:31.764Z,99.9
2018-09-09T03:28:39.016Z,99.9
2018-09-09T03:29:46.434Z,99.9
2018-09-09T03:30:53.651Z,99.9
2018-09-09T03:32:00.861Z,99.9
2018-09-09T03:33:08.067Z,99.9
2018-09-09T03:34:15.277Z,99.9
2018-09-09T03:35:22.484Z,99.9
2018-09-09T03:36:29.422Z,99.9
2018-09-09T03:37:36.630Z,99.9
2018-09-09T03:38:43.845Z,99.9
2018-09-09T03:39:50.785Z,99.9
2018-09-09T03:40:57.988Z,99.9
2018-09-09T03:42:05.197Z,99.9
2018-09-09T03:43:12.408Z,99.9
2018-09-09T03:44:19.615Z,99.9
2018-09-09T03:45:26.556Z,99.9
2018-09-09T03:46:33.767Z,99.9
2018-09-09T03:47:40.973Z,99.9
2018-09-09T03:48:47.917Z,99.9
2018-09-09T03:49:55.131Z,99.9
2018-09-09T03:51:02.116Z,99.9
2018-09-09T03:52:09.053Z,99.9
2018-09-09T03:53:16.265Z,99.9
2018-09-09T03:54:23.489Z,99.9
2018-09-09T03:55:30.708Z,99.9
2018-09-09T03:56:37.933Z,99.9
2018-09-09T03:57:44.853Z,99.9
2018-09-09T03:58:51.789Z,99.9
2018-09-09T03:59:59.000Z,99.9
2018-09-09T04:01:05.948Z,99.9
2018-09-09T04:02:13.155Z,99.9
2018-09-09T04:03:20.363Z,99.9
2018-09-09T04:04:27.590Z,99.9
2018-09-09T04:05:34.788Z,99.9
2018-09-09T04:06:42.005Z,99.9
2018-09-09T04:07:48.951Z,99.9
2018-09-09T04:08:56.158Z,99.9
2018-09-09T04:10:03.474Z,99.9
2018-09-09T04:11:11.115Z,99.9
2018-09-09T04:12:18.054Z,99.9
2018-09-09T04:13:25.275Z,99.9
2018-09-09T04:14:32.482Z,99.9
2018-09-09T04:15:39.689Z,99.9
2018-09-09T04:16:46.634Z,99.9
2018-09-09T04:17:53.840Z,99.9
2018-09-09T04:19:01.056Z,99.9
2018-09-09T04:20:08.298Z,99.9
2018-09-09T04:21:15.501Z,99.9
2018-09-09T04:22:22.714Z,99.9
2018-09-09T04:23:29.923Z,99.9
2018-09-09T04:24:37.133Z,99.9
2018-09-09T04:25:44.394Z,99.9
2018-09-09T04:26:51.604Z,99.9
2018-09-09T04:27:58.814Z,99.9
2018-09-09T04:29:06.035Z,99.9
2018-09-09T04:30:12.965Z,99.9
2018-09-09T04:31:20.176Z,99.9
2018-09-09T04:32:27.390Z,99.9
2018-09-09T04:33:34.598Z,99.9
2018-09-09T04:34:41.803Z,99.9
2018-09-09T04:35:49.022Z,99.9
2018-09-09T04:36:56.229Z,99.9
2018-09-09T04:38:03.434Z,99.9
2018-09-09T04:39:10.646Z,99.9
2018-09-09T04:40:17.858Z,99.9
2018-09-09T04:41:25.068Z,99.9
2018-09-09T04:42:32.281Z,99.9
2018-09-09T04:43:39.501Z,99.9
2018-09-09T04:44:46.439Z,99.9
2018-09-09T04:45:53.664Z,99.9
2018-09-09T04:47:00.879Z,99.9
2018-09-09T04:48:07.814Z,99.9
2018-09-09T04:49:15.025Z,99.9
2018-09-09T04:50:22.236Z,99.9
2018-09-09T04:51:29.445Z,99.9
2018-09-09T04:52:36.664Z,99.9
2018-09-09T04:53:43.874Z,99.9
2018-09-09T04:54:50.806Z,99.9
2018-09-09T04:55:58.013Z,99.9
2018-09-09T04:57:05.224Z,99.9
2018-09-09T04:58:12.430Z,99.9
2018-09-09T04:59:19.635Z,99.9
2018-09-09T05:00:26.848Z,99.9
2018-09-09T05:01:34.058Z,99.9
2018-09-09T05:02:41.277Z,99.9
2018-09-09T05:03:48.489Z,99.9
2018-09-09T05:04:55.698Z,99.9
2018-09-09T05:06:02.910Z,99.9
2018-09-09T05:07:10.120Z,99.9
2018-09-09T05:08:17.334Z,99.9
2018-09-09T05:09:24.543Z,99.9
2018-09-09T05:10:31.496Z,99.9
2018-09-09T05:11:38.699Z,99.9
2018-09-09T05:12:45.905Z,99.9
2018-09-09T05:13:53.111Z,99.9
2018-09-09T05:15:00.315Z,99.9
2018-09-09T05:16:07.525Z,99.9
2018-09-09T05:17:14.732Z,99.9
2018-09-09T05:18:21.934Z,99.9
2018-09-09T05:19:29.144Z,99.9
2018-09-09T05:20:36.360Z,99.9
2018-09-09T05:21:43.549Z,99.9
2018-09-09T05:22:50.482Z,99.9
2018-09-09T05:23:57.686Z,99.9
2018-09-09T05:25:04.896Z,99.9
2018-09-09T05:26:11.834Z,99.9
2018-09-09T05:27:19.045Z,99.9
2018-09-09T05:28:25.974Z,99.9
2018-09-09T05:29:33.186Z,99.9
2018-09-09T05:30:40.404Z,99.9
2018-09-09T05:31:47.610Z,99.9
2018-09-09T05:32:54.815Z,99.9
2018-09-09T05:34:02.025Z,99.9
2018-09-09T05:35:09.241Z,99.9
2018-09-09T05:36:16.450Z,99.9
2018-09-09T05:37:23.418Z,99.9
2018-09-09T05:38:30.629Z,99.9
2018-09-09T05:39:37.566Z,99.9
2018-09-09T05:40:44.803Z,99.9
2018-09-09T05:41:52.012Z,99.9
2018-09-09T05:42:59.222Z,99.9
2018-09-09T05:44:06.426Z,99.9
2018-09-09T05:45:13.636Z,99.9
2018-09-09T05:46:20.844Z,99.9
2018-09-09T05:47:28.053Z,99.9
2018-09-09T05:49:41.896Z,99.9
2018-09-09T05:50:49.108Z,99.9
2018-09-09T05:51:56.048Z,99.9
2018-09-09T05:53:02.992Z,99.9
2018-09-09T05:54:10.209Z,99.9
2018-09-09T05:55:17.425Z,99.9
2018-09-09T05:56:24.633Z,99.9
2018-09-09T05:57:31.845Z,99.9
2018-09-09T05:58:39.055Z,99.9
2018-09-09T05:59:45.992Z,99.9
2018-09-09T06:00:53.207Z,99.9
2018-09-09T06:02:00.407Z,99.9
2018-09-09T06:03:07.339Z,99.9
2018-09-09T06:04:14.553Z,99.9
2018-09-09T06:05:21.765Z,99.9
2018-09-09T06:06:28.975Z,99.9
2018-09-09T06:07:36.191Z,99.9
2018-09-09T06:08:43.404Z,99.9
2018-09-09T06:09:50.649Z,99.9
2018-09-09T06:10:57.863Z,99.9
2018-09-09T06:12:05.069Z,99.9
2018-09-09T06:13:12.289Z,99.9
2018-09-09T06:14:19.497Z,99.9
2018-09-09T06:15:26.432Z,99.9
2018-09-09T06:16:33.648Z,99.9
2018-09-09T06:17:40.578Z,99.9
2018-09-09T06:18:47.789Z,99.9
2018-09-09T06:19:54.994Z,99.9
2018-09-09T06:21:02.208Z,99.9
2018-09-09T06:22:09.416Z,99.9
2018-09-09T06:23:16.624Z,99.9
2018-09-09T06:24:23.842Z,99.9
2018-09-09T06:25:31.048Z,99.9
2018-09-09T06:26:38.253Z,99.9
2018-09-09T06:27:45.189Z,99.9
2018-09-09T06:28:52.403Z,99.9
2018-09-09T06:29:59.339Z,99.9
2018-09-09T06:31:06.547Z,99.9
2018-09-09T06:32:13.757Z,99.9
2018-09-09T06:33:20.980Z,99.9
2018-09-09T06:34:28.179Z,99.9
2018-09-09T06:35:35.400Z,99.9
2018-09-09T06:36:42.613Z,99.9
2018-09-09T06:37:49.822Z,99.9
2018-09-09T06:38:56.775Z,99.9
2018-09-09T06:40:04.094Z,99.9
2018-09-09T06:41:11.307Z,99.9
2018-09-09T06:42:18.248Z,99.9
2018-09-09T06:43:25.457Z,99.9
2018-09-09T06:44:32.662Z,99.9
2018-09-09T06:45:39.872Z,99.9
2018-09-09T06:46:47.090Z,99.9
2018-09-09T06:47:54.303Z,99.9
2018-09-09T06:49:01.511Z,99.9
2018-09-09T06:50:08.716Z,99.9
2018-09-09T06:51:15.965Z,99.9
2018-09-09T06:52:23.259Z,99.9
2018-09-09T06:53:30.467Z,99.9
2018-09-09T06:54:37.397Z,99.9
2018-09-09T06:55:44.607Z,99.9
2018-09-09T06:56:51.821Z,99.9
2018-09-09T06:57:59.031Z,99.9
2018-09-09T06:59:05.977Z,99.9
2018-09-09T07:00:13.191Z,99.9
2018-09-09T07:01:20.395Z,99.9
2018-09-09T07:02:27.728Z,99.9
2018-09-09T07:03:35.448Z,99.9
2018-09-09T07:04:42.663Z,99.9
2018-09-09T07:05:49.875Z,99.9
2018-09-09T07:06:57.088Z,99.9
2018-09-09T07:08:04.022Z,99.9
2018-09-09T07:09:11.239Z,99.9
2018-09-09T07:10:18.448Z,99.9
2018-09-09T07:11:25.817Z,99.9
2018-09-09T07:12:33.939Z,99.9
2018-09-09T07:13:41.189Z,99.9
2018-09-09T07:14:48.128Z,99.9
2018-09-09T07:15:55.066Z,99.9
2018-09-09T07:17:02.323Z,99.9
2018-09-09T07:18:09.659Z,99.9
2018-09-09T07:19:16.926Z,99.9
2018-09-09T07:20:24.129Z,99.9
2018-09-09T07:21:31.345Z,99.9
2018-09-09T07:22:38.572Z,99.9
2018-09-09T07:23:46.084Z,99.9
2018-09-09T07:24:53.289Z,99.9
2018-09-09T07:27:22.372Z,99.9
2018-09-09T07:28:29.639Z,99.9
2018-09-09T07:29:37.051Z,99.9
2018-09-09T07:30:44.267Z,99.9
2018-09-09T07:31:51.202Z,99.9
2018-09-09T07:32:58.136Z,99.9
2018-09-09T07:34:05.344Z,99.9
2018-09-09T07:35:12.631Z,99.9
2018-09-09T07:36:19.837Z,99.9
2018-09-09T07:37:27.114Z,99.9
2018-09-09T07:38:34.638Z,99.9
2018-09-09T07:39:41.850Z,99.9
2018-09-09T07:40:49.059Z,99.9
2018-09-09T07:41:56.001Z,99.9
2018-09-09T07:43:03.216Z,99.9
2018-09-09T07:44:10.424Z,99.9
2018-09-09T07:45:17.636Z,99.9
2018-09-09T07:46:24.901Z,99.9
2018-09-09T07:47:32.460Z,99.9
2018-09-09T07:48:39.674Z,99.9
2018-09-09T07:49:46.886Z,99.9
2018-09-09T07:50:54.099Z,99.9
2018-09-09T07:52:01.038Z,99.9
2018-09-09T07:53:08.250Z,99.9
2018-09-09T07:54:15.477Z,99.9
2018-09-09T07:55:22.685Z,99.9
2018-09-09T07:56:29.895Z,99.9
2018-09-09T07:57:37.113Z,99.9
2018-09-09T07:58:44.327Z,99.9
2018-09-09T07:59:51.264Z,99.9
2018-09-09T08:00:58.481Z,99.9
2018-09-09T08:02:05.421Z,99.9
2018-09-09T08:03:12.633Z,99.9
2018-09-09T08:04:19.856Z,99.9
2018-09-09T08:05:27.073Z,97.5
2018-09-09T08:06:34.285Z,98.8
2018-09-09T08:07:41.504Z,99.9
2018-09-09T08:08:48.716Z,99.9
2018-09-09T08:09:55.672Z,99.2
2018-09-09T08:11:02.880Z,92.2
2018-09-09T08:12:10.130Z,96.5
2018-09-09T08:13:17.694Z,99.9
2018-09-09T08:14:24.635Z,99.9
2018-09-09T08:15:31.853Z,99.5
2018-09-09T08:16:39.062Z,95.1
2018-09-09T08:17:46.284Z,97.6
2018-09-09T08:18:53.228Z,95.4
2018-09-09T08:20:00.440Z,95.9
2018-09-09T08:21:07.651Z,93.7
2018-09-09T08:22:14.861Z,97
2018-09-09T08:23:21.796Z,93.9
2018-09-09T08:24:28.736Z,94.1
2018-09-09T08:25:35.950Z,90.2
2018-09-09T08:26:43.162Z,97.2
2018-09-09T08:27:50.377Z,95
2018-09-09T08:28:57.594Z,96.5
2018-09-09T08:30:04.810Z,96.4
2018-09-09T08:31:12.024Z,95.2
2018-09-09T08:32:19.233Z,78.9
2018-09-09T08:33:26.442Z,76.1
2018-09-09T08:34:33.382Z,71.9
2018-09-09T08:35:40.604Z,79.9
2018-09-09T08:36:47.816Z,70.4
2018-09-09T08:37:55.027Z,77.1
2018-09-09T08:39:02.241Z,72.3
2018-09-09T08:40:09.450Z,82.1
2018-09-09T08:41:16.664Z,70.4
2018-09-09T08:42:23.880Z,81.1
2018-09-09T08:43:31.098Z,70.3
2018-09-09T08:44:38.309Z,75.6
2018-09-09T08:45:45.521Z,70
2018-09-09T08:46:52.730Z,75.7
2018-09-09T08:47:59.414Z,67
2018-09-09T08:50:28.504Z,67.2
2018-09-09T08:51:35.721Z,65.2
2018-09-09T08:52:42.938Z,61.6
2018-09-09T08:53:50.151Z,55.6
2018-09-09T08:54:57.100Z,56.2
2018-09-09T08:56:04.320Z,59.4
2018-09-09T08:57:11.261Z,58
2018-09-09T08:58:18.481Z,55
2018-09-09T08:59:25.693Z,58.5
2018-09-09T09:00:32.916Z,53.7
2018-09-09T09:01:39.862Z,52.5
2018-09-09T09:02:46.529Z,55.3
2018-09-09T09:03:53.744Z,60.1
2018-09-09T09:05:00.963Z,49.5
2018-09-09T09:06:08.190Z,49.4
2018-09-09T09:07:15.140Z,50.6
2018-09-09T09:08:22.403Z,47.8
2018-09-09T09:09:29.613Z,45.9
2018-09-09T09:10:36.828Z,40.9
2018-09-09T09:11:44.040Z,42.9
2018-09-09T09:12:51.258Z,45
2018-09-09T09:13:58.481Z,51
2018-09-09T09:15:05.696Z,42
2018-09-09T09:16:12.909Z,39
2018-09-09T09:17:20.132Z,43.6
2018-09-09T09:18:27.391Z,52.7
2018-09-09T09:19:34.700Z,48.5
2018-09-09T09:20:41.958Z,46.3
2018-09-09T09:21:49.652Z,44.9
2018-09-09T09:22:56.861Z,45.5
2018-09-09T09:24:04.081Z,34.3
2018-09-09T09:25:11.020Z,33.9
2018-09-09T09:26:18.236Z,31.8
2018-09-09T09:27:25.453Z,33.2
2018-09-09T09:28:32.670Z,33.2
2018-09-09T09:29:39.889Z,30.3
2018-09-09T09:30:47.221Z,23
2018-09-09T09:31:54.951Z,27.6
2018-09-09T09:33:02.176Z,25
2018-09-09T09:34:09.392Z,27.2
2018-09-09T09:35:16.607Z,25.1
2018-09-09T09:36:23.832Z,33
2018-09-09T09:37:31.056Z,30.5
2018-09-09T09:38:38.270Z,26.8
2018-09-09T09:39:45.490Z,30
2018-09-09T09:40:52.428Z,22.8
2018-09-09T09:41:59.647Z,28
2018-09-09T09:43:07.075Z,24.2
2018-09-09T09:44:14.294Z,27.2
2018-09-09T09:45:21.512Z,23.7
2018-09-09T09:46:28.722Z,19.4
2018-09-09T09:47:35.943Z,18.3
2018-09-09T09:48:43.162Z,19.5
2018-09-09T09:49:50.375Z,22.6
2018-09-09T09:50:57.593Z,18
2018-09-09T09:52:04.813Z,18.4
2018-09-09T09:53:12.061Z,19.8
2018-09-09T09:54:19.463Z,19.4
2018-09-09T09:55:26.677Z,22.5
2018-09-09T09:56:34.169Z,18
2018-09-09T09:57:41.383Z,15
2018-09-09T09:58:48.604Z,13.9
2018-09-09T09:59:55.821Z,17.8
2018-09-09T10:01:03.038Z,17
2018-09-09T10:02:10.263Z,14.9
2018-09-09T10:03:17.476Z,17.8
2018-09-09T10:04:24.699Z,12.9
2018-09-09T10:05:31.915Z,13.9
2018-09-09T10:06:39.128Z,16.4
2018-09-09T10:07:46.342Z,19.4
2018-09-09T10:08:53.572Z,19.9
2018-09-09T10:10:00.810Z,10.3
2018-09-09T10:11:08.025Z,12.4
2018-09-09T10:12:14.972Z,14
2018-09-09T10:13:21.933Z,13.4
2018-09-09T10:14:29.148Z,15.3
2018-09-09T10:15:36.370Z,13.6
2018-09-09T10:16:43.584Z,15.2
2018-09-09T10:17:50.797Z,12
2018-09-09T10:18:57.741Z,9.8
2018-09-09T10:20:04.962Z,15.5
2018-09-09T10:21:12.179Z,16.5
2018-09-09T10:22:19.402Z,15.8
2018-09-09T10:23:26.660Z,7.6
2018-09-09T10:24:33.615Z,9.3
2018-09-09T10:25:40.837Z,14.6
2018-09-09T10:26:48.052Z,12.6
2018-09-09T10:27:55.315Z,13.5
2018-09-09T10:29:02.529Z,14.3
2018-09-09T10:30:09.855Z,13.3
2018-09-09T10:31:17.513Z,15.3
2018-09-09T10:32:24.729Z,14.6
2018-09-09T10:33:31.944Z,13.1
2018-09-09T10:34:39.163Z,10.3
2018-09-09T10:35:46.376Z,8.5
2018-09-09T10:36:53.604Z,11.1
2018-09-09T10:38:00.825Z,11.5
2018-09-09T10:39:07.770Z,11.7
2018-09-09T10:40:14.993Z,9.9
2018-09-09T10:41:22.207Z,8.4
2018-09-09T10:42:29.451Z,13.4
2018-09-09T10:43:36.665Z,13.9
2018-09-09T10:44:43.607Z,10.9
2018-09-09T10:45:50.828Z,10.7
2018-09-09T10:46:58.058Z,9.4
2018-09-09T10:48:05.465Z,8.9
2018-09-09T10:49:12.680Z,10.4
2018-09-09T10:50:19.626Z,8.1
2018-09-09T10:51:26.843Z,4.9
2018-09-09T10:52:34.058Z,6.8
2018-09-09T10:53:41.275Z,9.2
2018-09-09T10:54:48.488Z,7.6
2018-09-09T10:55:55.704Z,7.2
2018-09-09T10:57:02.929Z,5.3
2018-09-09T10:58:10.143Z,6.4
2018-09-09T10:59:17.360Z,8.8
2018-09-09T11:00:24.575Z,14.3
2018-09-09T11:01:31.799Z,9.6
2018-09-09T11:02:39.017Z,7.4
2018-09-09T11:03:45.962Z,8.3
2018-09-09T11:04:53.180Z,8.8
2018-09-09T11:06:00.400Z,6.1
2018-09-09T11:07:07.620Z,9.7
2018-09-09T11:08:14.853Z,12
2018-09-09T11:09:22.063Z,4.9
2018-09-09T11:10:29.277Z,5.5
2018-09-09T11:11:36.496Z,9.9
2018-09-09T11:12:43.815Z,9.4
2018-09-09T11:13:51.083Z,7.5
2018-09-09T11:14:58.305Z,8.5
2018-09-09T11:16:05.526Z,5.2
2018-09-09T11:17:12.740Z,5.9
2018-09-09T11:18:19.957Z,2.4
2018-09-09T11:19:27.174Z,4.2
2018-09-09T11:20:34.396Z,2.1
2018-09-09T11:21:41.615Z,4.6
2018-09-09T11:22:48.841Z,7.1
2018-09-09T11:23:56.099Z,5.3
2018-09-09T11:25:03.055Z,6.8
2018-09-09T11:26:10.282Z,7.5
2018-09-09T11:27:17.500Z,4
2018-09-09T11:28:24.725Z,5.7
2018-09-09T11:29:31.938Z,7.8
2018-09-09T11:30:39.167Z,6.8
2018-09-09T11:31:46.380Z,5.9
2018-09-09T11:32:53.603Z,6.7
2018-09-09T11:34:00.822Z,7.6
2018-09-09T11:35:07.770Z,8.1
2018-09-09T11:36:14.826Z,7.1
2018-09-09T11:37:22.170Z,9.1
2018-09-09T11:38:29.393Z,6.9
2018-09-09T11:39:36.609Z,10.9
2018-09-09T11:40:43.948Z,4.4
2018-09-09T11:41:51.404Z,3.1
2018-09-09T11:42:58.629Z,5.2
2018-09-09T11:44:05.901Z,6.7
2018-09-09T11:45:13.122Z,7.9
2018-09-09T11:46:20.344Z,9.3
2018-09-09T11:47:27.578Z,6.9
2018-09-09T11:48:34.800Z,6.9
2018-09-09T11:49:42.019Z,7
2018-09-09T11:50:49.237Z,5.8
2018-09-09T11:51:56.457Z,5.9
2018-09-09T11:53:03.698Z,6.5
2018-09-09T11:54:11.036Z,7.3
2018-09-09T11:55:18.256Z,7.7
2018-09-09T11:56:25.204Z,11.3
2018-09-09T11:57:32.428Z,6.3
2018-09-09T11:58:39.644Z,4.9
2018-09-09T11:59:46.588Z,9.3
2018-09-09T12:00:53.537Z,8.1
2018-09-09T12:02:00.527Z,4.7
2018-09-09T12:03:07.935Z,5.9
2018-09-09T12:04:15.160Z,6.9
2018-09-09T12:05:22.106Z,9.6
2018-09-09T12:06:29.335Z,4.9
2018-09-09T12:07:36.664Z,5.5
2018-09-09T12:08:44.381Z,5.1
2018-09-09T12:09:51.333Z,8.5
2018-09-09T12:10:58.555Z,11.5
2018-09-09T12:12:05.775Z,8.1
2018-09-09T12:13:12.990Z,7.4
2018-09-09T12:14:20.225Z,7.2
2018-09-09T12:15:26.885Z,9.9
2018-09-09T12:16:34.103Z,10
2018-09-09T12:17:41.047Z,7.9
2018-09-09T12:18:48.267Z,4.9
2018-09-09T12:19:55.483Z,9.7
2018-09-09T12:21:02.703Z,6
2018-09-09T12:22:09.930Z,3.8
2018-09-09T12:23:16.877Z,6.2
2018-09-09T12:24:24.093Z,7.5
2018-09-09T12:25:31.309Z,7.6
2018-09-09T12:26:38.526Z,7
2018-09-09T12:27:45.741Z,5.6
2018-09-09T12:28:52.963Z,4.2
2018-09-09T12:30:00.196Z,5.8
2018-09-09T12:31:07.415Z,4.9
2018-09-09T12:32:14.178Z,5.9
2018-09-09T12:33:21.245Z,8.6
2018-09-09T12:34:28.471Z,7.1
2018-09-09T12:35:35.693Z,7.1
2018-09-09T12:36:42.931Z,8.8
2018-09-09T12:37:50.254Z,7.8
2018-09-09T12:38:57.915Z,6.7
2018-09-09T12:40:05.141Z,5.2
2018-09-09T12:41:12.102Z,5.3
2018-09-09T12:42:19.324Z,9.3
2018-09-09T12:43:26.544Z,8.1
2018-09-09T12:44:33.764Z,5.6
2018-09-09T12:45:40.987Z,6.8
2018-09-09T12:46:48.221Z,5.2
2018-09-09T12:47:55.431Z,4
2018-09-09T12:49:02.660Z,2.5
2018-09-09T12:50:09.611Z,2
2018-09-09T12:51:16.841Z,3.7
2018-09-09T12:52:24.061Z,7.4
2018-09-09T12:53:31.278Z,5.7
2018-09-09T12:54:38.944Z,3.7
2018-09-09T12:55:45.887Z,2.3
2018-09-09T12:56:53.107Z,3.8
2018-09-09T12:58:00.327Z,4.2
2018-09-09T12:59:07.558Z,2.4
2018-09-09T13:00:14.557Z,4.6
2018-09-09T13:01:22.022Z,5
2018-09-09T13:02:29.240Z,7.2
2018-09-09T13:03:36.471Z,4.9
2018-09-09T13:04:43.691Z,3.1
2018-09-09T13:05:50.907Z,4.2
2018-09-09T13:06:58.131Z,3.3
2018-09-09T13:08:05.354Z,4.3
2018-09-09T13:09:12.559Z,5
2018-09-09T13:10:19.779Z,2.2
2018-09-09T13:11:27.007Z,4.5
2018-09-09T13:12:33.947Z,1.6
2018-09-09T13:13:41.167Z,1.8
2018-09-09T13:14:48.386Z,2.1
2018-09-09T13:15:55.605Z,3.5
2018-09-09T13:17:02.820Z,4.8
2018-09-09T13:18:10.034Z,3.6
2018-09-09T13:19:17.257Z,1.7
2018-09-09T13:20:24.482Z,1.6
2018-09-09T13:21:31.693Z,1
2018-09-09T13:22:38.950Z,2.1
2018-09-09T13:23:46.166Z,2.8
2018-09-09T13:24:53.108Z,1
2018-09-09T13:26:00.318Z,1
2018-09-09T13:27:07.563Z,1
2018-09-09T13:28:14.783Z,1
2018-09-09T13:29:22.003Z,1
2018-09-09T13:30:29.223Z,1
2018-09-09T13:31:36.443Z,1
2018-09-09T13:32:43.660Z,1
2018-09-09T13:33:50.881Z,1
2018-09-09T13:34:58.099Z,1
2018-09-09T13:36:05.318Z,1
2018-09-09T13:37:12.547Z,1
2018-09-09T13:38:19.757Z,1
2018-09-09T13:39:26.978Z,1
2018-09-09T13:40:34.201Z,1
2018-09-09T13:41:41.423Z,1
2018-09-09T13:42:48.641Z,1
2018-09-09T13:43:55.859Z,1
2018-09-09T13:45:03.075Z,1
2018-09-09T13:46:10.294Z,1
2018-09-09T13:47:17.511Z,1
2018-09-09T13:48:24.793Z,1
2018-09-09T13:49:32.186Z,1
2018-09-09T13:50:39.406Z,1
2018-09-09T13:51:46.625Z,1
2018-09-09T13:52:53.849Z,1
2018-09-09T13:54:01.068Z,1
2018-09-09T13:55:08.283Z,1
2018-09-09T13:56:15.505Z,1
2018-09-09T13:57:22.725Z,1
2018-09-09T13:58:29.948Z,1
2018-09-09T13:59:37.166Z,1
2018-09-09T14:00:44.383Z,1
2018-09-09T14:01:51.322Z,1
2018-09-09T14:02:58.539Z,1
2018-09-09T14:04:05.757Z,1
2018-09-09T14:05:12.987Z,1
2018-09-09T14:06:20.221Z,1
2018-09-09T14:07:27.440Z,1
2018-09-09T14:08:34.655Z,1
2018-09-09T14:09:41.972Z,1
2018-09-09T14:10:49.273Z,1
2018-09-09T14:11:56.491Z,1
2018-09-09T14:13:03.707Z,1
2018-09-09T14:14:10.929Z,1
2018-09-09T14:15:18.229Z,1
2018-09-09T14:16:25.865Z,1
2018-09-09T14:17:32.802Z,1
2018-09-09T14:18:40.025Z,1
2018-09-09T14:19:47.255Z,1
2018-09-09T14:20:54.192Z,1
2018-09-09T14:22:01.139Z,1
2018-09-09T14:23:08.084Z,1
2018-09-09T14:24:15.311Z,1
2018-09-09T14:25:22.535Z,1
2018-09-09T14:26:29.763Z,1
2018-09-09T14:27:36.983Z,1
2018-09-09T14:28:44.202Z,1
2018-09-09T14:29:51.428Z,1
2018-09-09T14:30:58.654Z,1
2018-09-09T14:32:05.337Z,1
2018-09-09T14:33:12.557Z,1
2018-09-09T14:34:19.808Z,1
2018-09-09T14:35:27.357Z,1
2018-09-09T14:36:34.577Z,1
2018-09-09T14:37:41.800Z,1
2018-09-09T14:38:49.044Z,1
2018-09-09T14:39:55.989Z,1
2018-09-09T14:41:03.216Z,1
2018-09-09T14:42:10.433Z,1
2018-09-09T14:43:17.657Z,1
2018-09-09T14:44:24.878Z,1
2018-09-09T14:45:32.097Z,1
2018-09-09T14:46:39.353Z,1
2018-09-09T14:47:46.579Z,1
2018-09-09T14:48:53.799Z,1
2018-09-09T14:50:01.014Z,1
2018-09-09T14:51:08.234Z,1
2018-09-09T14:52:15.455Z,1
2018-09-09T14:53:22.696Z,1
2018-09-09T14:54:30.249Z,1
2018-09-09T14:55:37.476Z,1
2018-09-09T14:56:44.695Z,1
2018-09-09T14:57:51.930Z,1
2018-09-09T14:58:59.139Z,1
2018-09-09T15:00:06.360Z,1
2018-09-09T15:01:13.631Z,1
2018-09-09T15:02:20.846Z,1
2018-09-09T15:03:28.068Z,1
2018-09-09T15:04:35.295Z,1
2018-09-09T15:05:42.509Z,1
2018-09-09T15:06:49.747Z,1
2018-09-09T15:07:57.151Z,1
2018-09-09T15:09:04.367Z,1
2018-09-09T15:10:11.588Z,1
2018-09-09T15:11:18.522Z,1
2018-09-09T15:12:25.744Z,1
2018-09-09T15:13:32.963Z,1
2018-09-09T15:14:39.920Z,1
2018-09-09T15:15:47.140Z,1
2018-09-09T15:16:54.357Z,1
2018-09-09T15:18:01.582Z,1